createdAt,value
2019-05-17T00:00:30.201Z,5.80
2019-05-17T00:02:34.010Z,4.93
2019-05-17T00:04:37.770Z,5.47
2019-05-17T00:06:41.362Z,8.13
2019-05-17T00:08:47.133Z,6.83
2019-05-17T00:10:50.474Z,6.17
2019-05-17T00:12:56.283Z,5.80
2019-05-17T00:14:59.364Z,5.33
2019-05-17T00:17:03.055Z,5.53
2019-05-17T00:19:07.504Z,6.77
2019-05-17T00:21:11.290Z,6.43
2019-05-17T00:23:17.240Z,6.03
2019-05-17T00:25:20.309Z,7.00
2019-05-17T00:27:26.354Z,5.30
2019-05-17T00:29:29.304Z,10.07
2019-05-17T00:31:32.938Z,5.80
2019-05-17T00:33:36.799Z,6.87
2019-05-17T00:35:40.505Z,6.43
2019-05-17T00:37:46.392Z,6.20
2019-05-17T00:39:49.457Z,7.67
2019-05-17T00:41:57.161Z,6.63
2019-05-17T00:43:58.458Z,7.20
2019-05-17T00:46:02.230Z,8.73
2019-05-17T00:48:06.475Z,10.67
2019-05-17T00:50:10.907Z,8.13
2019-05-17T00:52:16.543Z,6.77
2019-05-17T00:54:19.926Z,5.30
2019-05-17T00:56:23.516Z,7.40
2019-05-17T00:58:27.225Z,7.07
2019-05-17T01:00:30.984Z,8.70
2019-05-17T01:02:36.356Z,7.23
2019-05-17T01:04:42.529Z,6.90
2019-05-17T01:06:46.867Z,10.47
2019-05-17T01:09:01.002Z,7.80
2019-05-17T01:10:56.666Z,10.33
2019-05-17T01:13:00.413Z,6.83
2019-05-17T01:15:07.450Z,7.67
2019-05-17T01:17:11.354Z,8.07
2019-05-17T01:19:16.462Z,10.03
2019-05-17T01:21:20.264Z,7.90
2019-05-17T01:23:23.952Z,9.40
2019-05-17T01:25:27.639Z,8.60
2019-05-17T01:27:32.303Z,10.60
2019-05-17T01:29:36.412Z,7.60
2019-05-17T01:31:40.128Z,7.30
2019-05-17T01:33:43.788Z,7.50
2019-05-17T01:35:47.477Z,5.63
2019-05-17T01:37:51.066Z,6.10
2019-05-17T01:39:54.717Z,7.83
2019-05-17T01:41:58.465Z,6.87
2019-05-17T01:44:02.194Z,6.83
2019-05-17T01:46:06.697Z,8.17
2019-05-17T01:48:10.678Z,6.60
2019-05-17T01:50:17.573Z,8.50
2019-05-17T01:52:21.364Z,13.60
2019-05-17T01:54:26.904Z,8.90
2019-05-17T01:56:30.345Z,7.87
2019-05-17T01:58:36.325Z,8.00
2019-05-17T02:00:39.205Z,8.70
2019-05-17T02:02:47.337Z,13.43
2019-05-17T02:04:52.245Z,11.93
2019-05-17T02:06:57.402Z,11.13
2019-05-17T02:09:01.276Z,12.63
2019-05-17T02:11:06.875Z,15.10
2019-05-17T02:13:10.450Z,17.27
2019-05-17T02:15:16.498Z,17.70
2019-05-17T02:17:20.370Z,15.00
2019-05-17T02:19:26.427Z,15.37
2019-05-17T02:21:29.311Z,16.87
2019-05-17T02:23:32.924Z,16.47
2019-05-17T02:25:37.047Z,13.40
2019-05-17T02:27:44.688Z,18.37
2019-05-17T02:29:47.470Z,18.37
2019-05-17T02:31:52.632Z,16.57
2019-05-17T02:33:56.685Z,17.90
2019-05-17T02:36:02.728Z,15.03
2019-05-17T02:38:05.762Z,22.57
2019-05-17T02:40:13.928Z,20.80
2019-05-17T02:42:15.619Z,20.80
2019-05-17T02:44:19.289Z,19.30
2019-05-17T02:46:23.219Z,21.50
2019-05-17T02:48:26.847Z,16.30
2019-05-17T02:50:33.089Z,20.57
2019-05-17T02:52:35.886Z,20.00
2019-05-17T02:54:39.476Z,20.77
2019-05-17T02:56:43.759Z,20.83
2019-05-17T02:58:47.551Z,23.30
2019-05-17T03:00:53.272Z,18.43
2019-05-17T03:02:56.512Z,21.13
2019-05-17T03:05:03.584Z,18.00
2019-05-17T03:07:05.758Z,18.83
2019-05-17T03:09:12.287Z,19.60
2019-05-17T03:11:14.765Z,21.60
2019-05-17T03:13:18.520Z,18.50
2019-05-17T03:15:23.358Z,22.10
2019-05-17T03:17:27.393Z,21.83
2019-05-17T03:19:32.761Z,18.30
2019-05-17T03:21:36.465Z,26.87
2019-05-17T03:23:43.279Z,19.33
2019-05-17T03:25:45.546Z,20.20
2019-05-17T03:27:49.259Z,20.23
2019-05-17T03:29:54.707Z,21.13
2019-05-17T03:32:00.511Z,17.97
2019-05-17T03:34:06.598Z,19.73
2019-05-17T03:36:15.890Z,22.87
2019-05-17T03:38:15.359Z,16.73
2019-05-17T03:40:36.372Z,19.67
2019-05-17T03:42:24.534Z,15.67
2019-05-17T03:44:28.220Z,18.70
2019-05-17T03:46:33.470Z,21.50
2019-05-17T03:48:37.476Z,16.00
2019-05-17T03:50:43.550Z,18.90
2019-05-17T03:52:46.743Z,20.30
2019-05-17T03:54:53.156Z,25.07
2019-05-17T03:56:55.884Z,19.63
2019-05-17T03:58:59.600Z,20.60
2019-05-17T04:01:04.112Z,21.27
2019-05-17T04:03:08.319Z,21.30
2019-05-17T04:05:12.867Z,22.00
2019-05-17T04:07:16.990Z,22.10
2019-05-17T04:09:22.473Z,22.43
2019-05-17T04:11:31.830Z,20.90
2019-05-17T04:13:33.730Z,22.07
2019-05-17T04:15:36.885Z,21.00
2019-05-17T04:17:43.481Z,22.20
2019-05-17T04:19:45.783Z,25.97
2019-05-17T04:21:49.472Z,22.67
2019-05-17T04:23:53.932Z,22.43
2019-05-17T04:25:57.724Z,20.80
2019-05-17T04:28:02.766Z,25.63
2019-05-17T04:30:07.419Z,24.90
2019-05-17T04:32:12.908Z,22.50
2019-05-17T04:34:16.661Z,24.03
2019-05-17T04:36:22.434Z,23.97
2019-05-17T04:38:25.781Z,21.57
2019-05-17T04:40:29.560Z,22.67
2019-05-17T04:42:33.298Z,24.87
2019-05-17T04:44:37.135Z,28.20
2019-05-17T04:46:43.071Z,25.37
2019-05-17T04:48:46.061Z,23.27
2019-05-17T04:50:49.696Z,23.77
2019-05-17T04:52:54.040Z,23.77
2019-05-17T04:54:57.810Z,27.63
2019-05-17T04:57:02.678Z,24.83
2019-05-17T04:59:06.691Z,26.13
2019-05-17T05:01:13.200Z,21.43
2019-05-17T05:03:15.955Z,25.47
2019-05-17T05:05:22.478Z,25.30
2019-05-17T05:07:25.370Z,27.43
2019-05-17T05:09:32.309Z,27.77
2019-05-17T05:11:51.606Z,34.27
2019-05-17T05:13:42.593Z,29.57
2019-05-17T05:15:46.141Z,34.67
2019-05-17T05:17:52.627Z,29.07
2019-05-17T05:19:55.375Z,29.37
2019-05-17T05:21:59.233Z,27.60
2019-05-17T05:24:03.562Z,32.40
2019-05-17T05:26:07.296Z,32.40
2019-05-17T05:28:11.496Z,30.77
2019-05-17T05:30:15.474Z,32.57
2019-05-17T05:32:19.271Z,30.13
2019-05-17T05:34:22.980Z,31.90
2019-05-17T05:36:28.180Z,34.83
2019-05-17T05:38:32.173Z,32.93
2019-05-17T05:40:36.213Z,32.73
2019-05-17T05:42:42.266Z,31.10
2019-05-17T05:44:45.370Z,32.97
2019-05-17T05:46:51.374Z,28.50
2019-05-17T05:48:54.501Z,34.90
2019-05-17T05:50:58.221Z,27.90
2019-05-17T05:53:02.178Z,28.97
2019-05-17T05:55:06.720Z,31.40
2019-05-17T05:57:12.544Z,38.50
2019-05-17T05:59:15.578Z,30.17
2019-05-17T06:01:21.785Z,31.27
2019-05-17T06:03:24.773Z,27.33
2019-05-17T06:05:28.637Z,27.73
2019-05-17T06:07:32.318Z,28.33
2019-05-17T06:09:36.034Z,28.53
2019-05-17T06:11:41.708Z,29.23
2019-05-17T06:13:45.048Z,31.97
2019-05-17T06:15:51.802Z,29.67
2019-05-17T06:17:54.037Z,27.83
2019-05-17T06:19:57.628Z,25.57
2019-05-17T06:22:02.736Z,24.70
2019-05-17T06:24:06.633Z,23.67
2019-05-17T06:26:12.459Z,25.40
2019-05-17T06:28:15.654Z,26.77
2019-05-17T06:30:21.967Z,25.13
2019-05-17T06:32:25.760Z,25.87
2019-05-17T06:34:29.630Z,30.17
2019-05-17T06:36:33.469Z,24.00
2019-05-17T06:38:37.161Z,20.67
2019-05-17T06:40:41.997Z,26.33
2019-05-17T06:42:46.041Z,22.10
2019-05-17T06:44:52.253Z,22.73
2019-05-17T06:46:55.298Z,20.97
2019-05-17T06:48:58.911Z,25.17
2019-05-17T06:51:02.863Z,27.63
2019-05-17T06:53:06.717Z,22.20
2019-05-17T06:55:12.746Z,27.73
2019-05-17T06:57:15.962Z,22.60
2019-05-17T06:59:19.765Z,19.00
2019-05-17T07:01:23.407Z,21.63
2019-05-17T07:03:29.352Z,20.33
2019-05-17T07:05:40.548Z,23.80
2019-05-17T07:07:44.382Z,25.60
2019-05-17T07:09:49.675Z,26.67
2019-05-17T07:11:53.575Z,20.77
2019-05-17T07:13:59.645Z,22.30
2019-05-17T07:16:02.696Z,23.57
2019-05-17T07:18:06.480Z,23.13
2019-05-17T07:20:10.924Z,21.80
2019-05-17T07:22:14.714Z,20.30
2019-05-17T07:24:19.570Z,24.77
2019-05-17T07:26:23.478Z,20.87
2019-05-17T07:28:27.144Z,18.40
2019-05-17T07:30:31.061Z,22.53
2019-05-17T07:32:34.814Z,21.23
2019-05-17T07:34:40.159Z,18.10
2019-05-17T07:36:43.849Z,20.17
2019-05-17T07:38:47.500Z,19.37
2019-05-17T07:40:51.132Z,20.50
2019-05-17T07:43:06.934Z,18.70
2019-05-17T07:45:00.518Z,25.93
2019-05-17T07:47:04.659Z,19.57
2019-05-17T07:49:10.624Z,17.57
2019-05-17T07:51:13.584Z,20.17
2019-05-17T07:53:19.772Z,26.93
2019-05-17T07:55:23.186Z,18.17
2019-05-17T07:57:27.120Z,29.90
2019-05-17T07:59:30.859Z,18.40
2019-05-17T08:01:34.583Z,17.57
2019-05-17T08:03:40.370Z,18.13
2019-05-17T08:05:43.661Z,21.50
2019-05-17T08:07:49.867Z,16.63
2019-05-17T08:09:52.887Z,16.83
2019-05-17T08:11:56.612Z,18.37
2019-05-17T08:14:02.294Z,20.40
2019-05-17T08:16:06.136Z,18.63
2019-05-17T08:18:10.908Z,18.10
2019-05-17T08:20:14.993Z,16.70
2019-05-17T08:22:20.247Z,20.57
2019-05-17T08:24:24.153Z,17.87
2019-05-17T08:26:29.704Z,18.97
2019-05-17T08:28:33.254Z,24.00
2019-05-17T08:30:37.090Z,19.20
2019-05-17T08:32:40.901Z,19.03
2019-05-17T08:34:44.705Z,15.40
2019-05-17T08:36:49.878Z,12.63
2019-05-17T08:38:53.662Z,16.90
2019-05-17T08:41:00.366Z,14.43
2019-05-17T08:43:02.836Z,12.90
2019-05-17T08:45:07.027Z,17.07
2019-05-17T08:47:10.801Z,16.67
2019-05-17T08:49:14.590Z,15.30
2019-05-17T08:51:19.693Z,12.23
2019-05-17T08:53:23.477Z,12.57
2019-05-17T08:55:29.751Z,14.10
2019-05-17T08:57:32.630Z,16.27
2019-05-17T08:59:36.455Z,14.27
2019-05-17T09:01:41.831Z,14.57
2019-05-17T09:03:47.518Z,11.97
2019-05-17T09:05:52.617Z,17.87
2019-05-17T09:07:56.959Z,13.67
2019-05-17T09:10:01.717Z,20.27
2019-05-17T09:12:06.054Z,13.40
2019-05-17T09:14:10.507Z,17.10
2019-05-17T09:16:14.319Z,11.00
2019-05-17T09:18:20.410Z,12.53
2019-05-17T09:20:23.499Z,14.70
2019-05-17T09:22:27.461Z,13.20
2019-05-17T09:24:31.258Z,12.90
2019-05-17T09:26:35.111Z,15.00
2019-05-17T09:28:39.364Z,12.93
2019-05-17T09:30:43.279Z,11.90
2019-05-17T09:32:47.010Z,14.90
2019-05-17T09:34:50.742Z,10.47
2019-05-17T09:36:54.505Z,12.57
2019-05-17T09:39:00.057Z,12.30
2019-05-17T09:41:03.998Z,10.10
2019-05-17T09:43:09.866Z,11.53
2019-05-17T09:45:13.473Z,9.60
2019-05-17T09:47:17.142Z,9.20
2019-05-17T09:49:20.814Z,10.03
2019-05-17T09:51:24.580Z,8.40
2019-05-17T09:53:30.485Z,14.90
2019-05-17T09:55:33.681Z,6.83
2019-05-17T09:57:37.473Z,5.40
2019-05-17T09:59:41.321Z,5.27
2019-05-17T10:01:45.064Z,11.33
2019-05-17T10:03:50.617Z,7.83
2019-05-17T10:05:54.067Z,8.90
2019-05-17T10:07:59.880Z,7.23
2019-05-17T10:10:05.039Z,7.13
2019-05-17T10:12:09.554Z,8.77
2019-05-17T10:14:24.558Z,5.97
2019-05-17T10:16:20.288Z,5.40
2019-05-17T10:18:23.939Z,5.57
2019-05-17T10:20:29.273Z,13.43
2019-05-17T10:22:33.107Z,7.57
2019-05-17T10:24:39.662Z,8.07
2019-05-17T10:26:42.634Z,10.70
2019-05-17T10:28:52.604Z,7.20
2019-05-17T10:30:52.496Z,7.27
2019-05-17T10:32:56.279Z,13.23
2019-05-17T10:35:00.452Z,8.00
2019-05-17T10:37:04.505Z,12.93
2019-05-17T10:39:09.913Z,6.67
2019-05-17T10:41:13.829Z,6.20
2019-05-17T10:43:17.440Z,12.33
2019-05-17T10:45:21.101Z,9.60
2019-05-17T10:47:25.003Z,15.73
2019-05-17T10:49:29.508Z,15.60
2019-05-17T10:51:33.401Z,24.63
2019-05-17T10:53:37.186Z,10.63
2019-05-17T10:55:41.049Z,8.90
2019-05-17T10:57:44.996Z,10.43
2019-05-17T10:59:49.922Z,7.20
2019-05-17T11:01:53.870Z,9.70
2019-05-17T11:03:59.568Z,8.43
2019-05-17T11:06:03.122Z,8.37
2019-05-17T11:08:06.847Z,10.63
2019-05-17T11:10:12.434Z,17.43
2019-05-17T11:12:16.399Z,7.80
2019-05-17T11:14:20.069Z,14.40
2019-05-17T11:16:23.823Z,10.23
2019-05-17T11:18:27.617Z,8.67
2019-05-17T11:20:31.367Z,9.47
2019-05-17T11:22:35.056Z,8.77
2019-05-17T11:24:38.890Z,10.77
2019-05-17T11:26:42.622Z,34.23
2019-05-17T11:28:46.382Z,13.13
2019-05-17T11:30:50.120Z,7.10
2019-05-17T11:32:53.869Z,6.60
2019-05-17T11:34:57.644Z,8.80
2019-05-17T11:37:01.490Z,8.03
2019-05-17T11:39:06.392Z,8.90
2019-05-17T11:41:20.497Z,6.70
2019-05-17T11:43:15.767Z,6.50
2019-05-17T11:45:27.959Z,11.23
2019-05-17T11:47:25.087Z,13.30
2019-05-17T11:49:28.744Z,13.33
2019-05-17T11:51:32.560Z,7.20
2019-05-17T11:53:36.385Z,7.60
2019-05-17T11:55:40.143Z,9.23
2019-05-17T11:57:43.884Z,9.60
2019-05-17T11:59:49.088Z,5.83
2019-05-17T12:01:52.780Z,5.77
2019-05-17T12:03:56.370Z,5.43
2019-05-17T12:06:00.046Z,4.97
2019-05-17T12:08:03.742Z,19.03
2019-05-17T12:10:08.440Z,18.47
2019-05-17T12:12:12.157Z,8.07
2019-05-17T12:14:15.809Z,5.63
2019-05-17T12:16:19.868Z,7.50
2019-05-17T12:18:23.684Z,7.20
2019-05-17T12:20:27.401Z,7.83
2019-05-17T12:22:31.120Z,7.60
2019-05-17T12:24:34.954Z,6.53
2019-05-17T12:26:38.678Z,6.70
2019-05-17T12:28:42.522Z,7.37
2019-05-17T12:30:46.177Z,6.90
2019-05-17T12:32:49.957Z,4.17
2019-05-17T12:34:53.705Z,6.57
2019-05-17T12:36:57.451Z,5.50
2019-05-17T12:39:01.198Z,4.93
2019-05-17T12:41:05.023Z,13.20
2019-05-17T12:43:08.675Z,16.20
2019-05-17T12:45:12.408Z,11.10
2019-05-17T12:47:16.052Z,5.80
2019-05-17T12:49:19.784Z,7.47
2019-05-17T12:51:23.500Z,7.60
2019-05-17T12:53:27.203Z,7.73
2019-05-17T12:55:31.037Z,14.80
2019-05-17T12:57:34.647Z,11.53
2019-05-17T12:59:38.237Z,6.93
2019-05-17T13:01:41.868Z,12.80
2019-05-17T13:03:45.555Z,14.20
2019-05-17T13:05:49.258Z,9.63
2019-05-17T13:07:52.944Z,10.47
2019-05-17T13:09:56.563Z,7.97
2019-05-17T13:12:00.241Z,6.27
2019-05-17T13:14:04.523Z,9.90
2019-05-17T13:16:17.612Z,9.23
2019-05-17T13:18:13.622Z,7.60
2019-05-17T13:20:17.566Z,8.27
2019-05-17T13:22:21.180Z,9.30
2019-05-17T13:24:24.884Z,11.53
2019-05-17T13:26:28.550Z,9.47
2019-05-17T13:28:32.205Z,9.97
2019-05-17T13:30:35.868Z,10.80
2019-05-17T13:32:39.680Z,7.73
2019-05-17T13:34:43.351Z,8.77
2019-05-17T13:36:46.953Z,9.70
2019-05-17T13:38:50.704Z,6.43
2019-05-17T13:40:54.380Z,10.70
2019-05-17T13:42:58.184Z,8.50
2019-05-17T13:45:01.798Z,6.17
2019-05-17T13:47:05.564Z,8.10
2019-05-17T13:49:09.311Z,12.13
2019-05-17T13:51:12.886Z,6.10
2019-05-17T13:53:16.445Z,10.17
2019-05-17T13:55:20.194Z,7.50
2019-05-17T13:57:23.917Z,5.00
2019-05-17T13:59:27.687Z,5.70
2019-05-17T14:01:31.361Z,8.73
2019-05-17T14:03:35.018Z,7.53
2019-05-17T14:05:39.789Z,5.43
2019-05-17T14:07:43.457Z,4.63
2019-05-17T14:09:47.104Z,6.27
2019-05-17T14:11:50.812Z,5.80
2019-05-17T14:13:54.610Z,7.47
2019-05-17T14:15:58.299Z,4.93
2019-05-17T14:18:01.957Z,6.37
2019-05-17T14:20:08.246Z,8.23
2019-05-17T14:22:11.913Z,5.17
2019-05-17T14:24:15.624Z,6.77
2019-05-17T14:26:19.440Z,8.77
2019-05-17T14:28:23.569Z,7.10
2019-05-17T14:30:27.453Z,7.63
2019-05-17T14:32:31.110Z,8.07
2019-05-17T14:34:34.848Z,5.30
2019-05-17T14:36:38.448Z,6.07
2019-05-17T14:38:43.266Z,5.70
2019-05-17T14:41:05.518Z,4.97
2019-05-17T14:42:54.172Z,5.50
2019-05-17T14:44:57.896Z,11.13
2019-05-17T14:47:01.491Z,5.10
2019-05-17T14:49:05.201Z,5.53
2019-05-17T14:51:09.241Z,4.10
2019-05-17T14:53:13.911Z,5.30
2019-05-17T14:55:17.643Z,5.60
2019-05-17T14:57:21.429Z,5.30
2019-05-17T14:59:25.114Z,7.90
2019-05-17T15:01:28.863Z,11.47
2019-05-17T15:03:32.598Z,8.67
2019-05-17T15:05:36.332Z,6.77
2019-05-17T15:07:40.085Z,6.30
2019-05-17T15:09:43.715Z,5.50
2019-05-17T15:11:47.553Z,4.03
2019-05-17T15:13:51.198Z,5.07
2019-05-17T15:15:54.905Z,5.03
2019-05-17T15:17:59.231Z,5.53
2019-05-17T15:20:03.079Z,5.20
2019-05-17T15:22:06.694Z,4.37
2019-05-17T15:24:10.491Z,5.03
2019-05-17T15:26:14.208Z,9.20
2019-05-17T15:28:17.738Z,9.03
2019-05-17T15:30:21.477Z,4.90
2019-05-17T15:32:25.248Z,5.30
2019-05-17T15:34:28.878Z,5.33
2019-05-17T15:36:32.632Z,5.90
2019-05-17T15:38:36.353Z,7.17
2019-05-17T15:40:40.081Z,5.73
2019-05-17T15:42:44.859Z,5.43
2019-05-17T15:44:48.668Z,5.10
2019-05-17T15:46:52.483Z,8.93
2019-05-17T15:48:56.129Z,7.27
2019-05-17T15:50:59.785Z,5.37
2019-05-17T15:53:03.461Z,6.13
2019-05-17T15:55:07.879Z,8.50
2019-05-17T15:57:11.657Z,5.60
2019-05-17T15:59:15.290Z,6.03
2019-05-17T16:01:19.132Z,5.27
2019-05-17T16:03:22.877Z,4.40
2019-05-17T16:05:26.526Z,5.60
2019-05-17T16:07:30.326Z,6.23
2019-05-17T16:09:34.115Z,4.23
2019-05-17T16:11:37.800Z,5.03
2019-05-17T16:13:41.537Z,6.83
2019-05-17T16:15:45.134Z,5.47
2019-05-17T16:17:48.817Z,13.47
2019-05-17T16:19:52.398Z,4.90
2019-05-17T16:21:56.168Z,8.07
2019-05-17T16:23:59.747Z,4.97
2019-05-17T16:26:03.426Z,5.67
2019-05-17T16:28:07.173Z,4.63
2019-05-17T16:30:11.119Z,5.30
2019-05-17T16:32:14.723Z,5.60
2019-05-17T16:34:18.433Z,7.57
2019-05-17T16:36:22.177Z,5.20
2019-05-17T16:38:26.117Z,5.73
2019-05-17T16:40:33.692Z,5.60
2019-05-17T16:42:37.364Z,5.50
2019-05-17T16:44:41.005Z,5.50
2019-05-17T16:46:44.675Z,5.97
2019-05-17T16:48:48.562Z,6.80
2019-05-17T16:50:52.334Z,4.97
2019-05-17T16:53:05.670Z,6.13
2019-05-17T16:55:04.235Z,10.27
2019-05-17T16:57:07.867Z,13.53
2019-05-17T16:59:11.783Z,6.63
2019-05-17T17:01:15.610Z,5.10
2019-05-17T17:03:22.890Z,6.33
2019-05-17T17:05:31.464Z,6.53
2019-05-17T17:07:32.154Z,5.80
2019-05-17T17:09:35.845Z,6.63
2019-05-17T17:11:39.547Z,4.93
2019-05-17T17:13:43.526Z,8.50
2019-05-17T17:15:47.085Z,5.53
2019-05-17T17:17:50.817Z,9.07
2019-05-17T17:19:54.477Z,8.40
2019-05-17T17:21:58.233Z,8.47
2019-05-17T17:24:02.035Z,4.17
2019-05-17T17:26:05.893Z,9.37
2019-05-17T17:28:09.537Z,6.13
2019-05-17T17:30:13.765Z,5.23
2019-05-17T17:32:21.600Z,4.77
2019-05-17T17:34:22.798Z,5.37
2019-05-17T17:36:26.502Z,10.13
2019-05-17T17:38:30.275Z,5.20
2019-05-17T17:40:34.022Z,8.63
2019-05-17T17:42:38.479Z,5.40
2019-05-17T17:44:42.302Z,9.03
2019-05-17T17:46:45.975Z,5.27
2019-05-17T17:48:49.661Z,7.73
2019-05-17T17:50:53.475Z,5.70
2019-05-17T17:52:57.251Z,14.03
2019-05-17T17:55:01.003Z,8.10
2019-05-17T17:57:04.724Z,6.73
2019-05-17T17:59:08.507Z,6.13
2019-05-17T18:01:12.113Z,8.10
2019-05-17T18:03:15.759Z,7.57
2019-05-17T18:05:19.614Z,5.70
2019-05-17T18:07:23.191Z,5.03
2019-05-17T18:09:26.887Z,6.53
2019-05-17T18:11:30.571Z,8.60
2019-05-17T18:13:37.787Z,6.90
2019-05-17T18:15:45.485Z,6.30
2019-05-17T18:17:49.064Z,5.90
2019-05-17T18:19:52.808Z,6.57
2019-05-17T18:21:56.394Z,6.30
2019-05-17T18:24:00.121Z,6.80
2019-05-17T18:26:04.359Z,11.00
2019-05-17T18:28:09.961Z,11.70
2019-05-17T18:30:13.898Z,9.37
2019-05-17T18:32:17.606Z,7.13
2019-05-17T18:34:21.253Z,9.70
2019-05-17T18:36:25.049Z,9.20
2019-05-17T18:38:38.612Z,8.43
2019-05-17T18:41:01.204Z,9.40
2019-05-17T18:43:07.739Z,8.50
2019-05-17T18:45:28.222Z,9.80
2019-05-17T18:47:32.010Z,6.90
2019-05-17T18:49:36.308Z,6.73
2019-05-17T18:51:40.155Z,7.17
2019-05-17T18:53:44.086Z,8.33
2019-05-17T18:55:47.892Z,6.10
2019-05-17T18:57:51.613Z,6.40
2019-05-17T18:59:55.343Z,7.43
2019-05-17T19:01:59.025Z,7.33
2019-05-17T19:04:02.808Z,6.67
2019-05-17T19:06:06.610Z,7.80
2019-05-17T19:08:10.263Z,7.40
2019-05-17T19:10:15.343Z,7.57
2019-05-17T19:12:19.528Z,9.77
2019-05-17T19:14:23.216Z,8.00
2019-05-17T19:16:27.182Z,9.20
2019-05-17T19:18:30.897Z,7.10
2019-05-17T19:20:34.738Z,9.27
2019-05-17T19:22:38.456Z,8.40
2019-05-17T19:24:42.119Z,8.80
2019-05-17T19:26:47.285Z,8.00
2019-05-17T19:28:51.010Z,9.97
2019-05-17T19:30:54.778Z,11.50
2019-05-17T19:32:58.687Z,7.93
2019-05-17T19:35:02.461Z,9.80
2019-05-17T19:37:06.716Z,10.73
2019-05-17T19:39:10.434Z,8.40
2019-05-17T19:41:14.208Z,8.30
2019-05-17T19:43:17.883Z,9.30
2019-05-17T19:45:22.397Z,10.57
2019-05-17T19:47:26.071Z,10.10
2019-05-17T19:49:29.663Z,10.20
2019-05-17T19:51:33.434Z,9.97
2019-05-17T19:53:37.143Z,9.33
2019-05-17T19:55:40.720Z,9.50
2019-05-17T19:57:44.316Z,8.27
2019-05-17T19:59:49.105Z,11.77
2019-05-17T20:01:52.772Z,7.53
2019-05-17T20:03:56.448Z,10.00
2019-05-17T20:06:00.190Z,11.17
2019-05-17T20:08:03.881Z,7.90
2019-05-17T20:10:09.873Z,9.90
2019-05-17T20:12:13.468Z,12.80
2019-05-17T20:14:17.265Z,8.40
2019-05-17T20:16:20.912Z,10.03
2019-05-17T20:18:24.677Z,12.63
2019-05-17T20:20:28.244Z,8.30
2019-05-17T20:22:32.002Z,10.50
2019-05-17T20:24:35.696Z,8.13
2019-05-17T20:26:39.280Z,9.80
2019-05-17T20:28:43.029Z,11.50
2019-05-17T20:30:46.620Z,17.30
2019-05-17T20:32:50.365Z,11.03
2019-05-17T20:34:53.969Z,17.80
2019-05-17T20:36:57.636Z,18.07
2019-05-17T20:39:01.273Z,15.13
2019-05-17T20:41:05.004Z,13.07
2019-05-17T20:43:08.682Z,12.87
2019-05-17T20:45:12.704Z,10.83
2019-05-17T20:47:16.291Z,11.40
2019-05-17T20:49:20.013Z,9.97
2019-05-17T20:51:23.604Z,10.47
2019-05-17T20:53:27.220Z,13.83
2019-05-17T20:55:30.855Z,9.40
2019-05-17T20:57:34.700Z,13.00
2019-05-17T20:59:38.345Z,9.60
2019-05-17T21:01:41.928Z,8.57
2019-05-17T21:03:45.598Z,7.80
2019-05-17T21:05:49.194Z,8.13
2019-05-17T21:07:52.851Z,8.87
2019-05-17T21:09:56.672Z,8.17
2019-05-17T21:12:00.245Z,10.90
2019-05-17T21:14:04.019Z,10.30
2019-05-17T21:16:07.670Z,15.70
2019-05-17T21:18:11.354Z,10.50
2019-05-17T21:20:15.267Z,10.50
2019-05-17T21:22:18.965Z,12.93
2019-05-17T21:24:22.707Z,14.50
2019-05-17T21:26:26.298Z,12.40
2019-05-17T21:28:30.066Z,9.67
2019-05-17T21:30:33.791Z,11.27
2019-05-17T21:32:37.404Z,14.13
2019-05-17T21:34:41.166Z,9.67
2019-05-17T21:36:44.863Z,9.30
2019-05-17T21:38:48.476Z,9.97
2019-05-17T21:40:52.205Z,11.00
2019-05-17T21:42:55.952Z,10.30
2019-05-17T21:44:59.713Z,9.33
2019-05-17T21:47:04.997Z,8.60
2019-05-17T21:49:09.078Z,10.07
2019-05-17T21:51:12.732Z,11.47
2019-05-17T21:53:16.390Z,7.90
2019-05-17T21:55:20.047Z,12.57
2019-05-17T21:57:23.676Z,12.60
2019-05-17T21:59:27.390Z,10.00
2019-05-17T22:01:33.873Z,13.30
2019-05-17T22:03:37.545Z,10.07
2019-05-17T22:05:41.188Z,10.10
2019-05-17T22:07:44.777Z,11.70
2019-05-17T22:09:48.470Z,10.53
2019-05-17T22:11:53.685Z,12.40
2019-05-17T22:13:57.331Z,10.63
2019-05-17T22:16:01.105Z,10.13
2019-05-17T22:18:04.757Z,9.47
2019-05-17T22:20:08.441Z,11.17
2019-05-17T22:22:12.026Z,10.43
2019-05-17T22:24:15.822Z,9.43
2019-05-17T22:26:19.457Z,7.87
2019-05-17T22:28:23.073Z,9.57
2019-05-17T22:30:26.692Z,8.80
2019-05-17T22:32:30.422Z,10.20
2019-05-17T22:34:34.103Z,9.53
2019-05-17T22:36:37.718Z,10.40
2019-05-17T22:38:41.270Z,8.50
2019-05-17T22:40:45.025Z,7.40
2019-05-17T22:42:48.600Z,12.10
2019-05-17T22:44:52.365Z,9.30
2019-05-17T22:46:56.075Z,9.03
2019-05-17T22:48:59.655Z,7.33
2019-05-17T22:51:03.434Z,7.80
2019-05-17T22:53:07.083Z,10.30
2019-05-17T22:55:10.989Z,9.00
2019-05-17T22:57:14.569Z,8.73
2019-05-17T22:59:18.491Z,9.70
2019-05-17T23:01:22.250Z,8.40
2019-05-17T23:03:25.927Z,8.87
2019-05-17T23:05:29.562Z,8.43
2019-05-17T23:07:33.258Z,7.20
2019-05-17T23:09:36.926Z,7.60
2019-05-17T23:11:40.628Z,8.33
2019-05-17T23:13:44.284Z,7.57
2019-05-17T23:16:01.047Z,7.73
2019-05-17T23:18:04.896Z,12.00
2019-05-17T23:20:09.128Z,7.00
2019-05-17T23:22:13.191Z,11.97
2019-05-17T23:24:17.177Z,9.70
2019-05-17T23:26:21.229Z,8.03
2019-05-17T23:28:25.047Z,12.67
2019-05-17T23:30:28.584Z,12.40
2019-05-17T23:32:32.298Z,10.27
2019-05-17T23:34:37.922Z,9.97
2019-05-17T23:36:41.649Z,9.23
2019-05-17T23:38:45.322Z,8.20
2019-05-17T23:40:48.892Z,11.37
2019-05-17T23:42:52.536Z,11.00
2019-05-17T23:44:56.146Z,9.67
2019-05-17T23:47:07.059Z,10.47
2019-05-17T23:49:06.532Z,8.30
2019-05-17T23:51:10.197Z,9.60
2019-05-17T23:53:13.900Z,10.70
2019-05-17T23:55:17.690Z,7.80
2019-05-17T23:57:21.523Z,9.80
2019-05-17T23:59:25.373Z,10.60
